Verner, Canada
Current Conditions -  °F | °C
As of 8:00 AM on Thursday 23 Oct 2014 (Local Time) from CYYB Reporting Station
Clear Clear  
Wind Chill: 28°   Ceiling: Unl
Heat Index: 28°   Visibility: 15mi
Dew Point: 27°   Wind: 2mph
Humidity: 93%   Direction: NA
Pressure: 30.21"   Gusts: NA
Location:  46.4°N, 80.12°W
Report Text: CYYB 231200Z VRB02KT 15SM SKC M02/M03 A3021 RMK SLP246
Loading
Personal Weather Stations






























Interactive Weather Map
Tropical Storm Tracking
New forecast layout! Learn more

10-Day Weather Forecast

Advertisements
Track Severe Weather on mobile